Time;durP1;ratioP1;P1;durP2;ratioP2;P2;SDS_P1;SDS_P2;PMS_P1;PMS_P2;Temp;Humidity;BMP_temperature;BMP_pressure;BME280_temperature;BME280_humidity;BME280_pressure;Samples;Min_cycle;Max_cycle;Signal;HPM_P1;HPM_P2
2020/12/17 00:00:08;;;;;;;5.68;2.88;;;15.60;74.00;;;;;;2081399;28;20418;-74
2020/12/17 00:01:11;;;;;;;4.78;2.70;;;15.60;74.00;;;;;;2081540;28;20056;-74
2020/12/17 00:02:14;;;;;;;4.45;2.72;;;15.70;73.70;;;;;;2082002;28;20052;-74
2020/12/17 00:03:17;;;;;;;5.57;3.00;;;15.70;74.00;;;;;;2089929;28;20045;-74
2020/12/17 00:04:18;;;;;;;6.40;2.95;;;15.70;73.40;;;;;;2089920;28;20049;-73
2020/12/17 00:05:20;;;;;;;9.20;2.72;;;15.70;73.60;;;;;;2091551;28;20045;-74
2020/12/17 00:06:22;;;;;;;6.80;3.25;;;15.70;73.50;;;;;;2092297;28;20052;-75
2020/12/17 00:07:24;;;;;;;7.57;2.63;;;15.70;74.00;;;;;;2084464;28;20048;-76
2020/12/17 00:08:25;;;;;;;7.43;3.20;;;15.60;73.90;;;;;;2084248;28;20060;-73
2020/12/17 00:09:27;;;;;;;5.47;2.75;;;15.60;74.10;;;;;;2083478;28;20050;-74
2020/12/17 00:10:29;;;;;;;7.38;3.15;;;15.50;74.10;;;;;;2086332;28;20045;-73
2020/12/17 00:11:30;;;;;;;5.07;2.83;;;15.50;74.40;;;;;;2089905;28;20049;-73
2020/12/17 00:12:36;;;;;;;5.85;3.03;;;15.50;74.50;;;;;;2089471;28;20124;-73
2020/12/17 00:13:37;;;;;;;6.20;3.15;;;15.50;74.50;;;;;;2089183;28;20075;-73
2020/12/17 00:14:39;;;;;;;6.15;3.03;;;15.50;74.70;;;;;;2089820;28;20249;-73
2020/12/17 00:15:40;;;;;;;4.93;2.65;;;15.60;75.00;;;;;;2089640;28;20076;-73
2020/12/17 00:16:42;;;;;;;7.15;3.47;;;15.60;74.90;;;;;;2089492;28;20045;-72
2020/12/17 00:17:45;;;;;;;4.90;2.72;;;15.60;75.00;;;;;;2089445;28;20485;-73
2020/12/17 00:18:48;;;;;;;6.57;2.65;;;15.60;74.40;;;;;;2089806;28;20092;-73
2020/12/17 00:19:49;;;;;;;7.93;3.22;;;15.60;74.80;;;;;;2089365;28;20056;-74
2020/12/17 00:20:51;;;;;;;11.15;3.60;;;15.50;74.70;;;;;;2089514;28;20478;-72
2020/12/17 00:21:53;;;;;;;5.88;2.45;;;15.60;74.70;;;;;;2090301;28;20367;-72
2020/12/17 00:22:55;;;;;;;;;;;15.60;75.10;;;;;;2091708;28;20055;-74
2020/12/17 00:23:56;;;;;;;8.93;2.67;;;15.50;74.80;;;;;;2091117;28;19950;-73
2020/12/17 00:24:58;;;;;;;6.00;2.45;;;15.50;75.10;;;;;;2091733;28;20058;-74
2020/12/17 00:26:00;;;;;;;4.55;2.47;;;15.50;74.90;;;;;;2091055;28;20053;-73
2020/12/17 00:27:01;;;;;;;6.90;3.00;;;15.60;75.10;;;;;;2091272;28;20049;-74
2020/12/17 00:28:03;;;;;;;5.15;2.75;;;15.60;74.70;;;;;;2091174;28;20045;-77
2020/12/17 00:29:05;;;;;;;4.40;2.38;;;15.50;74.80;;;;;;2090732;28;20490;-73
2020/12/17 00:30:09;;;;;;;6.47;3.20;;;15.50;74.70;;;;;;2090768;28;20486;-76
2020/12/17 00:31:15;;;;;;;5.57;2.90;;;15.60;74.80;;;;;;2090775;28;20075;-72
2020/12/17 00:32:17;;;;;;;7.22;2.70;;;15.50;74.80;;;;;;2088918;28;20774;-73
2020/12/17 00:33:18;;;;;;;8.07;2.42;;;15.50;74.90;;;;;;2091282;28;20049;-74
2020/12/17 00:34:21;;;;;;;7.55;2.90;;;15.50;74.90;;;;;;2090933;28;20135;-75
2020/12/17 00:35:22;;;;;;;4.38;2.53;;;15.50;74.80;;;;;;2090958;28;20045;-73
2020/12/17 00:36:24;;;;;;;4.28;2.70;;;15.50;74.80;;;;;;2091332;28;20047;-72
2020/12/17 00:37:28;;;;;;;5.30;2.85;;;15.50;74.60;;;;;;2091648;28;20052;-73
2020/12/17 00:38:29;;;;;;;7.18;2.83;;;15.50;75.10;;;;;;2091276;28;20052;-73
2020/12/17 00:39:31;;;;;;;10.63;3.40;;;15.40;75.10;;;;;;2091195;28;20053;-76
2020/12/17 00:40:33;;;;;;;5.38;3.03;;;15.40;75.30;;;;;;2091135;28;20041;-73
2020/12/17 00:41:36;;;;;;;5.35;3.40;;;15.40;75.50;;;;;;2090759;28;20645;-73
2020/12/17 00:42:39;;;;;;;6.43;2.80;;;15.40;75.50;;;;;;2090447;28;20045;-73
2020/12/17 00:43:42;;;;;;;4.53;3.00;;;15.40;75.40;;;;;;2089769;28;20076;-72
2020/12/17 00:44:43;;;;;;;6.97;2.65;;;15.40;75.60;;;;;;2089996;28;20045;-73
2020/12/17 00:45:45;;;;;;;5.15;2.65;;;15.40;75.50;;;;;;2089748;28;20045;-73
2020/12/17 00:46:49;;;;;;;6.80;2.35;;;15.40;75.40;;;;;;2089868;28;20049;-73
2020/12/17 00:47:51;;;;;;;4.30;2.42;;;15.40;75.40;;;;;;2089623;28;20478;-73
2020/12/17 00:48:54;;;;;;;5.03;3.10;;;15.40;75.60;;;;;;2090037;28;20045;-72
2020/12/17 00:49:57;;;;;;;5.57;2.70;;;15.30;75.50;;;;;;2089788;28;20043;-72
2020/12/17 00:50:59;;;;;;;4.97;2.97;;;15.30;75.80;;;;;;2089849;28;20049;-72
2020/12/17 00:52:01;;;;;;;4.22;3.15;;;15.30;75.80;;;;;;2090436;28;20041;-72
2020/12/17 00:53:02;;;;;;;;;;;15.20;75.70;;;;;;2090576;28;20048;-73
2020/12/17 00:54:04;;;;;;;8.80;2.67;;;15.20;76.30;;;;;;2090335;28;19936;-72
2020/12/17 00:55:06;;;;;;;4.20;2.38;;;15.20;76.20;;;;;;2089716;28;20041;-73
2020/12/17 00:56:08;;;;;;;3.50;2.38;;;15.00;76.60;;;;;;2090032;28;20059;-73
2020/12/17 00:57:09;;;;;;;4.40;2.70;;;14.80;76.60;;;;;;2089484;28;20512;-73
2020/12/17 00:58:11;;;;;;;5.97;2.40;;;15.10;76.60;;;;;;2090683;28;20500;-75
2020/12/17 00:59:13;;;;;;;5.32;3.03;;;15.10;76.60;;;;;;2090515;28;20045;-73
2020/12/17 01:00:14;;;;;;;6.03;2.53;;;15.10;76.50;;;;;;2090274;28;20052;-73
2020/12/17 01:01:16;;;;;;;5.75;2.70;;;15.10;76.80;;;;;;2089116;28;20053;-73
2020/12/17 01:02:18;;;;;;;5.80;3.20;;;15.10;76.60;;;;;;2089114;28;20057;-74
2020/12/17 01:03:19;;;;;;;4.75;2.50;;;15.10;76.60;;;;;;2089996;28;20052;-73
2020/12/17 01:04:21;;;;;;;6.15;2.58;;;15.10;76.60;;;;;;2090267;28;20052;-73
2020/12/17 01:05:38;;;;;;;3.65;2.33;;;15.20;76.40;;;;;;2090556;28;20053;-73
2020/12/17 01:06:40;;;;;;;4.53;2.30;;;15.20;76.30;;;;;;2090409;28;20045;-72
2020/12/17 01:07:41;;;;;;;2.45;2.10;;;15.30;76.20;;;;;;2090492;28;20064;-73
2020/12/17 01:08:43;;;;;;;7.40;3.35;;;15.30;76.00;;;;;;2090493;28;20049;-73
2020/12/17 01:09:45;;;;;;;6.63;2.45;;;15.30;75.70;;;;;;2091556;28;20095;-73
2020/12/17 01:10:47;;;;;;;4.30;2.47;;;15.40;75.60;;;;;;2091588;28;20045;-72
2020/12/17 01:11:49;;;;;;;5.18;2.60;;;15.40;75.50;;;;;;2090057;28;20041;-74
2020/12/17 01:12:51;;;;;;;4.00;2.67;;;15.40;75.50;;;;;;2091089;28;20045;-73
2020/12/17 01:13:53;;;;;;;6.57;2.90;;;15.40;75.40;;;;;;2091858;28;20132;-72
2020/12/17 01:14:55;;;;;;;4.75;2.67;;;15.40;75.50;;;;;;2091448;28;20055;-73
2020/12/17 01:15:57;;;;;;;4.47;2.13;;;15.40;75.20;;;;;;2090165;28;20055;-73
2020/12/17 01:16:58;;;;;;;6.93;2.47;;;15.50;75.30;;;;;;2090428;28;20053;-72
2020/12/17 01:18:00;;;;;;;4.75;2.38;;;15.40;75.10;;;;;;2090074;28;20041;-73
2020/12/17 01:19:02;;;;;;;5.93;2.63;;;15.40;75.40;;;;;;2089349;28;20063;-73
2020/12/17 01:20:03;;;;;;;3.65;1.90;;;15.40;75.60;;;;;;2089220;28;20406;-73
2020/12/17 01:21:06;;;;;;;7.03;2.50;;;15.40;75.20;;;;;;2089701;28;20048;-75
2020/12/17 01:22:09;;;;;;;4.35;2.63;;;15.40;75.20;;;;;;2089587;28;20077;-73
2020/12/17 01:23:11;;;;;;;3.25;2.15;;;15.50;75.30;;;;;;2089465;28;20505;-74
2020/12/17 01:24:12;;;;;;;4.90;2.22;;;15.50;75.20;;;;;;2088524;28;20049;-73
2020/12/17 01:25:14;;;;;;;4.45;2.15;;;15.50;75.10;;;;;;2089317;28;20045;-73
2020/12/17 01:26:15;;;;;;;3.15;2.05;;;15.50;74.90;;;;;;2089936;28;20215;-74
2020/12/17 01:27:17;;;;;;;4.90;2.88;;;15.60;75.20;;;;;;2089118;28;20048;-74
2020/12/17 01:28:19;;;;;;;3.78;2.50;;;15.60;74.90;;;;;;2083189;28;20042;-73
2020/12/17 01:29:21;;;;;;;4.72;1.98;;;15.50;74.80;;;;;;2080934;28;20042;-73
2020/12/17 01:30:23;;;;;;;3.08;2.20;;;15.50;75.30;;;;;;2080475;28;20069;-74
2020/12/17 01:31:24;;;;;;;4.90;2.33;;;15.50;75.30;;;;;;2081006;28;20052;-73
2020/12/17 01:32:26;;;;;;;5.28;2.70;;;15.60;75.20;;;;;;2080845;28;20060;-72
2020/12/17 01:33:28;;;;;;;7.20;2.67;;;15.60;74.90;;;;;;2080618;28;20509;-72
2020/12/17 01:34:29;;;;;;;5.22;2.58;;;15.50;75.50;;;;;;2080711;28;20072;-72
2020/12/17 01:35:31;;;;;;;5.43;2.83;;;15.60;75.60;;;;;;2080937;28;20045;-74
2020/12/17 01:36:33;;;;;;;4.35;2.05;;;15.60;75.40;;;;;;2081175;28;20046;-72
2020/12/17 01:37:35;;;;;;;4.78;2.58;;;15.60;75.90;;;;;;2080669;28;20049;-73
2020/12/17 01:38:37;;;;;;;6.93;2.80;;;15.60;75.30;;;;;;2080341;28;20068;-72
2020/12/17 01:39:39;;;;;;;7.13;2.50;;;15.50;75.30;;;;;;2080667;28;20072;-73
2020/12/17 01:40:45;;;;;;;2.63;1.83;;;15.60;75.50;;;;;;2080547;28;20050;-73
2020/12/17 01:41:47;;;;;;;5.90;2.03;;;15.60;76.40;;;;;;2088107;28;20607;-73
2020/12/17 01:42:48;;;;;;;6.82;2.30;;;15.70;75.90;;;;;;2087915;28;20045;-73
2020/12/17 01:43:50;;;;;;;4.28;2.30;;;15.70;75.50;;;;;;2080413;28;20116;-73
2020/12/17 01:44:53;;;;;;;4.45;2.00;;;15.80;75.00;;;;;;2080440;28;20490;-73
2020/12/17 01:45:55;;;;;;;2.80;1.80;;;15.80;74.70;;;;;;2080668;28;20054;-73
2020/12/17 01:46:57;;;;;;;2.75;2.20;;;15.90;74.70;;;;;;2080592;28;20056;-73
2020/12/17 01:47:59;;;;;;;4.57;2.03;;;15.80;74.20;;;;;;2080508;28;20045;-73
2020/12/17 01:49:01;;;;;;;;;;;15.90;74.10;;;;;;2088840;28;20049;-73
2020/12/17 01:50:05;;;;;;;4.82;2.45;;;15.90;74.40;;;;;;2088120;28;19921;-73
2020/12/17 01:51:08;;;;;;;3.78;2.42;;;15.90;74.10;;;;;;2080820;28;20045;-73
2020/12/17 01:52:11;;;;;;;4.10;2.28;;;15.90;74.10;;;;;;2080328;28;20405;-73
2020/12/17 01:53:13;;;;;;;5.68;2.35;;;15.90;74.10;;;;;;2088122;28;20057;-73
2020/12/17 01:54:15;;;;;;;3.97;1.88;;;15.90;74.20;;;;;;2087974;28;20052;-73
2020/12/17 01:55:17;;;;;;;4.35;2.58;;;15.90;74.00;;;;;;2080853;28;20203;-73
2020/12/17 01:56:22;;;;;;;3.63;2.30;;;15.90;74.00;;;;;;2080605;28;20504;-73
2020/12/17 01:57:31;;;;;;;4.00;2.60;;;15.90;74.00;;;;;;2080298;28;20053;-73
2020/12/17 01:58:41;;;;;;;5.50;2.33;;;15.90;73.80;;;;;;2080355;28;20051;-73
2020/12/17 01:59:46;;;;;;;5.43;2.67;;;15.90;74.00;;;;;;2080534;28;20076;-73
2020/12/17 02:00:53;;;;;;;6.75;2.33;;;15.90;74.00;;;;;;2080239;28;20049;-72
2020/12/17 02:01:55;;;;;;;5.13;2.60;;;15.90;74.00;;;;;;2080525;28;20045;-73
2020/12/17 02:02:57;;;;;;;4.93;2.25;;;15.90;73.80;;;;;;2080806;28;20057;-73
2020/12/17 02:04:00;;;;;;;4.28;2.28;;;15.90;73.70;;;;;;2080976;28;20050;-73
2020/12/17 02:05:05;;;;;;;3.55;2.35;;;15.90;74.00;;;;;;2081442;28;20549;-74
2020/12/17 02:06:15;;;;;;;4.60;2.20;;;15.90;73.70;;;;;;2080352;28;20486;-74
2020/12/17 02:07:18;;;;;;;4.30;2.15;;;15.90;73.70;;;;;;2080735;28;20209;-73
2020/12/17 02:08:21;;;;;;;3.63;1.92;;;15.90;73.80;;;;;;2080680;28;20494;-73
2020/12/17 02:09:23;;;;;;;4.53;2.08;;;15.90;73.70;;;;;;2088316;28;20452;-73
2020/12/17 02:10:25;;;;;;;3.15;2.53;;;16.00;73.70;;;;;;2088168;28;20056;-73
2020/12/17 02:11:27;;;;;;;3.08;2.08;;;16.00;73.50;;;;;;2080210;28;21243;-73
2020/12/17 02:12:43;;;;;;;4.68;2.42;;;15.90;73.60;;;;;;2080499;28;20224;-74
2020/12/17 02:13:46;;;;;;;4.38;2.30;;;16.00;73.70;;;;;;2080290;28;20487;-74
2020/12/17 02:14:47;;;;;;;6.45;2.70;;;15.90;73.50;;;;;;2080495;28;20632;-73
2020/12/17 02:15:49;;;;;;;3.38;2.60;;;16.00;73.60;;;;;;2080289;28;20442;-73
2020/12/17 02:16:52;;;;;;;4.32;2.83;;;15.90;73.50;;;;;;2080606;28;20041;-76
2020/12/17 02:17:54;;;;;;;4.93;2.33;;;15.90;73.70;;;;;;2080142;28;20099;-73
2020/12/17 02:18:56;;;;;;;3.55;1.67;;;15.90;73.90;;;;;;2080090;28;20387;-73
2020/12/17 02:19:57;;;;;;;2.70;2.30;;;15.90;73.80;;;;;;2080531;28;20049;-73
2020/12/17 02:21:00;;;;;;;5.97;2.60;;;16.00;73.70;;;;;;2080316;28;20053;-73
2020/12/17 02:22:01;;;;;;;4.05;2.03;;;15.90;73.70;;;;;;2079529;28;20406;-73
2020/12/17 02:23:06;;;;;;;2.88;2.00;;;15.90;73.90;;;;;;2079944;28;20045;-73
2020/12/17 02:24:08;;;;;;;4.72;2.50;;;16.00;74.00;;;;;;2080304;28;20061;-74
2020/12/17 02:25:14;;;;;;;6.30;2.85;;;15.90;73.80;;;;;;2080501;28;20251;-73
2020/12/17 02:26:15;;;;;;;4.15;2.42;;;15.90;73.60;;;;;;2080340;28;20049;-73
2020/12/17 02:27:17;;;;;;;3.95;2.20;;;15.90;73.80;;;;;;2080283;28;20510;-73
2020/12/17 02:28:20;;;;;;;7.72;2.78;;;15.90;74.00;;;;;;2080318;28;20050;-73
2020/12/17 02:29:21;;;;;;;3.65;1.98;;;15.90;73.60;;;;;;2080268;28;20045;-74
2020/12/17 02:30:23;;;;;;;3.28;2.08;;;15.90;73.80;;;;;;2080477;28;20045;-73
2020/12/17 02:31:25;;;;;;;4.47;2.40;;;15.90;73.80;;;;;;2081171;28;20049;-73
2020/12/17 02:32:27;;;;;;;4.00;2.28;;;15.90;73.90;;;;;;2081082;28;20046;-74
2020/12/17 02:33:29;;;;;;;5.03;2.70;;;15.90;73.80;;;;;;2080912;28;20425;-73
2020/12/17 02:34:30;;;;;;;;;;;15.90;73.90;;;;;;2080662;28;20045;-73
2020/12/17 02:35:32;;;;;;;5.28;2.70;;;15.90;73.70;;;;;;2080221;28;19928;-72
2020/12/17 02:36:35;;;;;;;4.20;2.65;;;15.90;73.80;;;;;;2081305;28;20049;-73
2020/12/17 02:37:37;;;;;;;5.78;2.20;;;15.90;73.80;;;;;;2080971;28;20068;-72
2020/12/17 02:38:42;;;;;;;4.57;2.35;;;15.90;74.00;;;;;;2081046;28;20081;-73
2020/12/17 02:39:44;;;;;;;4.32;2.55;;;15.90;73.70;;;;;;2081755;28;20046;-73
2020/12/17 02:40:47;;;;;;;4.75;2.50;;;16.00;73.60;;;;;;2081742;28;20050;-73
2020/12/17 02:41:49;;;;;;;4.65;2.50;;;16.00;73.70;;;;;;2081793;28;20049;-72
2020/12/17 02:42:51;;;;;;;3.97;2.45;;;16.00;73.30;;;;;;2081674;28;20487;-73
2020/12/17 02:43:53;;;;;;;3.25;2.10;;;16.00;73.30;;;;;;2081791;28;20049;-72
2020/12/17 02:44:55;;;;;;;3.63;1.80;;;16.00;73.40;;;;;;2081312;28;20137;-72
2020/12/17 02:45:57;;;;;;;4.40;2.10;;;16.10;73.60;;;;;;2081571;28;20046;-73
2020/12/17 02:46:59;;;;;;;4.32;2.50;;;16.10;73.20;;;;;;2082337;28;20068;-73
2020/12/17 02:48:00;;;;;;;4.03;2.00;;;16.00;73.00;;;;;;2081705;28;20060;-73
2020/12/17 02:49:03;;;;;;;4.03;2.47;;;16.10;73.40;;;;;;2081833;28;20045;-73
2020/12/17 02:50:05;;;;;;;4.07;2.28;;;16.10;73.20;;;;;;2081980;28;20064;-73
2020/12/17 02:51:07;;;;;;;4.85;2.15;;;16.10;73.20;;;;;;2081675;28;20077;-74
2020/12/17 02:52:09;;;;;;;3.60;2.20;;;16.10;73.20;;;;;;2081851;28;20056;-73
2020/12/17 02:53:10;;;;;;;;;;;16.20;73.10;;;;;;2082321;28;20056;-73
2020/12/17 02:54:12;;;;;;;4.10;2.15;;;16.10;72.70;;;;;;2081909;28;19928;-74
2020/12/17 02:55:14;;;;;;;3.30;2.13;;;16.10;73.00;;;;;;2081821;28;20042;-72
2020/12/17 02:56:17;;;;;;;4.15;2.58;;;16.10;72.90;;;;;;2081609;28;20383;-72
2020/12/17 02:57:19;;;;;;;4.65;2.92;;;16.10;72.50;;;;;;2081500;28;20042;-72
2020/12/17 02:58:23;;;;;;;5.45;2.60;;;15.90;72.60;;;;;;2081921;28;20046;-73
2020/12/17 02:59:26;;;;;;;4.15;2.95;;;15.90;72.70;;;;;;2082477;28;20386;-73
2020/12/17 03:00:27;;;;;;;4.63;2.38;;;15.80;73.20;;;;;;2090069;28;20056;-73
2020/12/17 03:01:29;;;;;;;4.10;2.30;;;15.80;73.50;;;;;;2081621;28;20053;-73
2020/12/17 03:02:31;;;;;;;2.10;1.70;;;15.80;73.50;;;;;;2081028;28;20053;-73
2020/12/17 03:03:33;;;;;;;5.35;2.70;;;15.80;73.80;;;;;;2081943;28;20045;-73
2020/12/17 03:04:34;;;;;;;4.53;2.20;;;15.80;72.90;;;;;;2082113;28;20053;-73
2020/12/17 03:05:36;;;;;;;3.75;2.45;;;15.80;73.30;;;;;;2082640;28;20509;-73
2020/12/17 03:06:50;;;;;;;4.28;2.17;;;15.70;73.30;;;;;;2084402;28;20042;-72
2020/12/17 03:07:53;;;;;;;4.10;2.53;;;15.80;73.60;;;;;;2082097;28;20073;-72
2020/12/17 03:08:55;;;;;;;7.15;3.10;;;15.70;73.50;;;;;;2082716;28;20048;-73
2020/12/17 03:09:57;;;;;;;4.65;2.95;;;15.70;73.30;;;;;;2082442;28;20197;-73
2020/12/17 03:10:58;;;;;;;3.15;2.47;;;15.60;73.60;;;;;;2090814;28;20370;-72
2020/12/17 03:12:02;;;;;;;4.35;2.53;;;15.60;73.90;;;;;;2090692;28;20060;-73
2020/12/17 03:13:04;;;;;;;3.80;2.00;;;15.50;73.80;;;;;;2091209;28;20338;-72
2020/12/17 03:14:05;;;;;;;4.38;3.00;;;15.50;74.10;;;;;;2091215;28;20052;-73
2020/12/17 03:15:07;;;;;;;4.20;2.75;;;15.50;73.80;;;;;;2091118;28;20399;-73
2020/12/17 03:16:09;;;;;;;5.88;2.05;;;15.40;74.10;;;;;;2090563;28;20049;-73
2020/12/17 03:17:11;;;;;;;6.00;2.67;;;15.50;74.60;;;;;;2090892;28;20052;-74
2020/12/17 03:18:13;;;;;;;6.85;2.67;;;15.50;74.20;;;;;;2090390;28;20398;-73
2020/12/17 03:19:14;;;;;;;6.82;2.88;;;15.50;74.00;;;;;;2089511;28;20048;-72
2020/12/17 03:20:16;;;;;;;4.22;2.90;;;15.50;74.30;;;;;;2089592;28;20041;-73
2020/12/17 03:21:17;;;;;;;8.38;3.05;;;15.50;74.20;;;;;;2090516;28;20059;-73
2020/12/17 03:22:19;;;;;;;4.82;2.47;;;15.50;73.90;;;;;;2090002;28;20041;-72
2020/12/17 03:23:21;;;;;;;4.47;2.72;;;15.50;74.50;;;;;;2089750;28;20509;-73
2020/12/17 03:24:22;;;;;;;5.45;2.88;;;15.50;74.40;;;;;;2089698;28;20048;-72
2020/12/17 03:25:24;;;;;;;5.68;2.58;;;15.40;74.10;;;;;;2090081;28;20045;-73
2020/12/17 03:26:26;;;;;;;5.47;2.60;;;15.40;74.40;;;;;;2089859;28;20405;-73
2020/12/17 03:27:28;;;;;;;2.95;2.40;;;15.40;74.70;;;;;;2090136;28;20143;-74
2020/12/17 03:28:30;;;;;;;5.43;2.58;;;15.40;74.50;;;;;;2092827;28;20439;-73
2020/12/17 03:29:33;;;;;;;4.10;2.20;;;15.40;74.50;;;;;;2089458;28;20045;-73
2020/12/17 03:30:35;;;;;;;3.55;2.00;;;15.40;74.70;;;;;;2081573;28;20045;-73
2020/12/17 03:31:36;;;;;;;2.63;2.28;;;15.50;74.70;;;;;;2081745;28;20049;-72
2020/12/17 03:32:38;;;;;;;7.53;2.55;;;15.50;74.20;;;;;;2081464;28;20053;-73
2020/12/17 03:33:40;;;;;;;5.22;2.67;;;15.50;74.20;;;;;;2089188;28;20476;-73
2020/12/17 03:34:41;;;;;;;2.72;2.13;;;15.50;74.10;;;;;;2089049;28;20041;-73
2020/12/17 03:35:43;;;;;;;3.78;2.03;;;15.50;74.40;;;;;;2081584;28;20064;-73
2020/12/17 03:36:45;;;;;;;3.75;1.88;;;15.60;74.60;;;;;;2081849;28;20052;-72
2020/12/17 03:37:46;;;;;;;8.93;2.70;;;15.60;74.90;;;;;;2081468;28;20052;-72
2020/12/17 03:38:48;;;;;;;7.50;3.22;;;15.60;73.90;;;;;;2081235;28;20367;-73
2020/12/17 03:39:51;;;;;;;3.20;2.13;;;15.60;73.60;;;;;;2089034;28;20098;-73
2020/12/17 03:40:53;;;;;;;3.80;2.30;;;15.60;74.30;;;;;;2088763;28;20041;-73
2020/12/17 03:41:54;;;;;;;5.90;2.28;;;15.70;74.30;;;;;;2082031;28;20060;-73
2020/12/17 03:42:57;;;;;;;5.07;2.22;;;15.70;74.10;;;;;;2081735;28;20465;-73
2020/12/17 03:43:59;;;;;;;4.32;2.50;;;15.80;73.80;;;;;;2081203;28;20056;-73
2020/12/17 03:45:00;;;;;;;5.72;2.47;;;15.70;73.40;;;;;;2081642;28;20057;-73
2020/12/17 03:46:02;;;;;;;4.90;1.98;;;15.70;73.60;;;;;;2081256;28;20042;-72
2020/12/17 03:47:04;;;;;;;3.55;2.17;;;15.80;73.80;;;;;;2081303;28;20053;-72
2020/12/17 03:48:06;;;;;;;3.38;2.05;;;15.80;73.60;;;;;;2081297;28;20042;-72
2020/12/17 03:49:07;;;;;;;3.45;2.30;;;15.80;73.80;;;;;;2081425;28;20069;-73
2020/12/17 03:50:09;;;;;;;2.05;1.80;;;15.80;73.30;;;;;;2081139;28;20049;-72
2020/12/17 03:51:11;;;;;;;3.03;2.00;;;15.80;73.70;;;;;;2081309;28;20391;-72
2020/12/17 03:52:12;;;;;;;4.05;1.85;;;15.80;73.40;;;;;;2081209;28;20045;-72
2020/12/17 03:53:14;;;;;;;2.80;2.08;;;15.80;73.50;;;;;;2081385;28;20085;-72
2020/12/17 03:54:16;;;;;;;5.25;2.38;;;15.80;73.50;;;;;;2081285;28;20046;-72
2020/12/17 03:55:18;;;;;;;4.82;2.30;;;15.80;73.20;;;;;;2081919;28;20441;-72
2020/12/17 03:56:19;;;;;;;5.38;2.75;;;15.80;73.50;;;;;;2081833;28;20520;-72
2020/12/17 03:57:21;;;;;;;5.15;2.63;;;15.90;73.40;;;;;;2081617;28;20049;-72
2020/12/17 03:58:24;;;;;;;8.30;2.45;;;15.90;73.40;;;;;;2081161;28;20041;-73
2020/12/17 03:59:25;;;;;;;5.22;2.22;;;15.90;73.30;;;;;;2081086;28;20494;-72
2020/12/17 04:02:40;;;;;;;3.03;1.92;;;15.90;73.20;;;;;;2081252;28;20049;-72
2020/12/17 04:03:42;;;;;;;3.78;2.17;;;16.00;73.10;;;;;;2081162;28;20052;-72
2020/12/17 04:04:46;;;;;;;7.55;2.15;;;16.00;72.80;;;;;;2081083;28;20041;-72
2020/12/17 04:05:48;;;;;;;4.38;1.70;;;15.90;72.70;;;;;;2081098;28;20049;-72
2020/12/17 04:06:50;;;;;;;3.72;2.20;;;15.90;72.90;;;;;;2081211;28;20041;-72
2020/12/17 04:07:52;;;;;;;;;;;16.00;72.80;;;;;;2089439;28;20053;-72
2020/12/17 04:08:54;;;;;;;5.30;2.00;;;16.00;72.90;;;;;;2089680;28;20007;-74
2020/12/17 04:09:55;;;;;;;3.92;2.00;;;16.00;72.70;;;;;;2082182;28;20053;-74
2020/12/17 04:10:57;;;;;;;3.00;1.88;;;16.10;72.90;;;;;;2089943;28;20052;-73
2020/12/17 04:11:58;;;;;;;4.78;2.15;;;16.10;72.60;;;;;;2090833;28;20053;-73
2020/12/17 04:13:00;;;;;;;4.72;2.45;;;16.10;72.50;;;;;;2091275;28;20052;-73
2020/12/17 04:14:03;;;;;;;4.78;2.42;;;16.10;72.20;;;;;;2092222;28;20402;-73
2020/12/17 04:15:04;;;;;;;2.72;1.80;;;16.00;72.10;;;;;;2091349;28;20053;-73
2020/12/17 04:16:06;;;;;;;3.28;2.00;;;16.00;72.80;;;;;;2092124;28;20052;-73
2020/12/17 04:17:08;;;;;;;2.65;2.00;;;16.10;72.30;;;;;;2092010;28;20048;-74
2020/12/17 04:18:10;;;;;;;3.40;1.95;;;16.10;72.40;;;;;;2091890;28;20056;-74
2020/12/17 04:19:11;;;;;;;4.70;2.50;;;16.00;72.20;;;;;;2091440;28;20445;-73
2020/12/17 04:20:13;;;;;;;5.22;2.53;;;16.00;72.00;;;;;;2091675;28;20049;-73
2020/12/17 04:21:15;;;;;;;3.95;1.90;;;15.90;71.90;;;;;;2091130;28;20490;-75
2020/12/17 04:22:17;;;;;;;6.00;2.20;;;15.90;72.30;;;;;;2091240;28;20803;-75
2020/12/17 04:23:19;;;;;;;4.32;2.50;;;15.90;72.10;;;;;;2091024;28;20212;-74
2020/12/17 04:24:21;;;;;;;5.25;2.42;;;15.80;72.20;;;;;;2091478;28;20524;-73
2020/12/17 04:25:22;;;;;;;7.70;2.55;;;15.80;72.20;;;;;;2091998;28;20049;-73
2020/12/17 04:26:24;;;;;;;6.00;2.72;;;15.80;72.20;;;;;;2091707;28;20045;-73
2020/12/17 04:27:25;;;;;;;4.07;2.38;;;15.70;72.50;;;;;;2092143;28;20041;-73
2020/12/17 04:28:27;;;;;;;5.07;2.55;;;15.70;72.80;;;;;;2092497;28;20048;-74
2020/12/17 04:29:30;;;;;;;6.45;2.20;;;15.60;72.70;;;;;;2092401;28;20437;-73
2020/12/17 04:30:31;;;;;;;3.78;2.40;;;15.60;72.90;;;;;;2092414;28;20041;-73
2020/12/17 04:31:33;;;;;;;4.32;2.35;;;15.60;73.10;;;;;;2092238;28;20056;-74
2020/12/17 04:32:36;;;;;;;5.97;2.35;;;15.60;72.90;;;;;;2092544;28;20037;-73
2020/12/17 04:33:37;;;;;;;4.90;2.70;;;15.40;72.90;;;;;;2092037;28;20531;-73
2020/12/17 04:34:39;;;;;;;4.30;2.17;;;15.20;73.20;;;;;;2091809;28;20501;-74
2020/12/17 04:35:41;;;;;;;3.80;2.30;;;15.10;74.00;;;;;;2092480;28;20060;-74
2020/12/17 04:36:42;;;;;;;4.97;2.50;;;15.20;73.90;;;;;;2091837;28;20052;-75
2020/12/17 04:37:56;;;;;;;4.22;2.28;;;15.20;73.80;;;;;;2091785;28;20063;-76
2020/12/17 04:38:58;;;;;;;3.65;2.15;;;15.10;74.30;;;;;;2085295;28;20037;-73
2020/12/17 04:39:59;;;;;;;2.22;1.40;;;15.10;74.60;;;;;;2091499;28;20501;-74
2020/12/17 04:41:04;;;;;;;7.82;2.60;;;15.20;75.50;;;;;;2089963;28;20045;-74
2020/12/17 04:42:07;;;;;;;5.00;2.60;;;15.20;74.10;;;;;;2090061;28;20049;-73
2020/12/17 04:43:09;;;;;;;6.07;2.53;;;15.10;74.30;;;;;;2090732;28;20045;-73
2020/12/17 04:44:11;;;;;;;3.25;1.77;;;15.10;73.50;;;;;;2092768;28;20045;-75
2020/12/17 04:45:14;;;;;;;5.97;3.03;;;15.10;74.50;;;;;;2092921;28;20041;-73
2020/12/17 04:46:18;;;;;;;5.97;2.30;;;15.10;74.40;;;;;;2092086;28;20498;-73
2020/12/17 04:47:21;;;;;;;3.85;1.90;;;15.10;75.00;;;;;;2091383;28;20041;-73
2020/12/17 04:48:25;;;;;;;5.43;2.17;;;15.00;74.70;;;;;;2091350;28;20133;-74
2020/12/17 04:49:33;;;;;;;5.85;2.13;;;15.10;74.70;;;;;;2090390;28;20045;-73
2020/12/17 04:50:36;;;;;;;6.55;2.40;;;15.00;74.70;;;;;;2090323;28;20045;-74
2020/12/17 04:51:41;;;;;;;6.72;2.88;;;14.90;74.70;;;;;;2090421;28;20051;-73
2020/12/17 04:52:43;;;;;;;3.50;2.03;;;14.90;74.30;;;;;;2089556;28;20045;-73
2020/12/17 04:53:46;;;;;;;5.38;2.85;;;14.90;75.50;;;;;;2089188;28;20049;-74
2020/12/17 04:54:50;;;;;;;9.48;3.00;;;14.80;74.90;;;;;;2089141;28;20045;-73
2020/12/17 04:55:52;;;;;;;7.53;2.17;;;14.70;74.40;;;;;;2089512;28;20071;-74
2020/12/17 04:56:57;;;;;;;;;;;14.90;76.20;;;;;;2089427;28;20045;-73
2020/12/17 04:57:59;;;;;;;6.38;2.15;;;14.80;75.30;;;;;;2089025;28;20309;-73
2020/12/17 04:59:02;;;;;;;10.25;2.88;;;14.80;75.50;;;;;;2095944;28;20047;-74
2020/12/17 05:00:04;;;;;;;3.75;2.22;;;14.80;75.80;;;;;;2088948;28;20299;-73
2020/12/17 05:01:08;;;;;;;5.20;2.47;;;14.80;75.30;;;;;;2088773;28;20391;-73
2020/12/17 05:02:11;;;;;;;7.28;2.28;;;14.80;75.60;;;;;;2088303;28;20052;-73
2020/12/17 05:03:13;;;;;;;5.28;2.50;;;14.90;75.70;;;;;;2080533;28;20145;-74
2020/12/17 05:04:15;;;;;;;;;;;14.80;75.10;;;;;;2088840;28;20140;-74
2020/12/17 05:05:17;;;;;;;7.97;2.50;;;14.80;75.20;;;;;;2089203;28;19921;-74
2020/12/17 05:06:22;;;;;;;6.35;2.45;;;14.80;75.90;;;;;;2089541;28;20502;-73
2020/12/17 05:07:24;;;;;;;3.22;1.92;;;14.90;75.50;;;;;;2089040;28;20481;-73
2020/12/17 05:08:25;;;;;;;5.95;2.58;;;14.80;75.50;;;;;;2089076;28;20048;-73
2020/12/17 05:09:27;;;;;;;4.63;2.00;;;14.80;74.90;;;;;;2088972;28;20128;-74
2020/12/17 05:10:29;;;;;;;9.18;2.90;;;14.80;75.60;;;;;;2088763;28;20590;-74
2020/12/17 05:11:31;;;;;;;6.03;2.35;;;14.80;74.90;;;;;;2088738;28;20056;-73
2020/12/17 05:12:34;;;;;;;;;;;14.80;75.00;;;;;;2089318;28;20045;-73
2020/12/17 05:13:35;;;;;;;;;;;14.80;75.10;;;;;;2089356;28;19927;-73
2020/12/17 05:14:37;;;;;;;7.55;2.78;;;14.70;74.90;;;;;;2088945;28;19928;-73
2020/12/17 05:15:39;;;;;;;;;;;14.70;75.10;;;;;;2089362;28;20497;-74
2020/12/17 05:16:41;;;;;;;6.32;2.33;;;14.80;75.60;;;;;;2089053;28;19921;-73
2020/12/17 05:17:47;;;;;;;7.97;2.20;;;14.80;75.00;;;;;;2088819;28;20568;-74
2020/12/17 05:18:50;;;;;;;3.95;1.95;;;14.80;75.90;;;;;;2088729;28;20045;-73
2020/12/17 05:19:52;;;;;;;8.57;3.20;;;14.90;75.10;;;;;;2089166;28;20049;-74
2020/12/17 05:20:54;;;;;;;9.20;2.33;;;14.80;74.60;;;;;;2089155;28;20044;-73
2020/12/17 05:21:57;;;;;;;4.45;2.10;;;14.80;74.90;;;;;;2088712;28;20045;-73
2020/12/17 05:23:01;;;;;;;3.60;1.67;;;14.80;75.50;;;;;;2088931;28;20089;-73
2020/12/17 05:24:03;;;;;;;3.92;1.70;;;14.90;76.40;;;;;;2088906;28;20045;-73
2020/12/17 05:25:05;;;;;;;6.68;2.50;;;14.90;75.50;;;;;;2088963;28;20049;-74
2020/12/17 05:26:07;;;;;;;4.50;1.75;;;15.00;74.90;;;;;;2088416;28;20045;-73
2020/12/17 05:27:09;;;;;;;4.82;1.98;;;15.00;74.90;;;;;;2088145;28;20052;-73
2020/12/17 05:28:13;;;;;;;8.10;2.55;;;15.10;75.10;;;;;;2088326;28;20053;-73